createdAt,value
2017-11-08T00:00:11.787Z,30.92
2017-11-08T00:01:17.240Z,30.88
2017-11-08T00:02:22.779Z,31.65
2017-11-08T00:03:28.457Z,31.80
2017-11-08T00:04:34.416Z,32.05
2017-11-08T00:05:39.951Z,31.03
2017-11-08T00:06:45.429Z,30.75
2017-11-08T00:07:50.972Z,30.77
2017-11-08T00:08:56.784Z,31.67
2017-11-08T00:10:03.457Z,32.15
2017-11-08T00:11:08.922Z,31.92
2017-11-08T00:12:14.362Z,30.05
2017-11-08T00:13:19.756Z,31.23
2017-11-08T00:14:25.618Z,32.20
2017-11-08T00:15:31.100Z,30.25
2017-11-08T00:16:38.484Z,30.17
2017-11-08T00:17:44.500Z,30.00
2017-11-08T00:18:49.999Z,31.17
2017-11-08T00:19:58.661Z,29.50
2017-11-08T00:21:04.214Z,29.85
2017-11-08T00:22:22.837Z,30.52
2017-11-08T00:23:28.366Z,31.73
2017-11-08T00:24:34.037Z,30.47
2017-11-08T00:25:39.451Z,29.48
2017-11-08T00:26:44.855Z,29.02
2017-11-08T00:27:50.656Z,30.08
2017-11-08T00:28:56.182Z,29.80
2017-11-08T00:30:01.915Z,30.45
2017-11-08T00:31:07.434Z,31.15
2017-11-08T00:32:12.932Z,30.95
2017-11-08T00:33:18.683Z,32.20
2017-11-08T00:34:24.187Z,30.77
2017-11-08T00:35:29.806Z,32.15
2017-11-08T00:36:35.360Z,29.65
2017-11-08T00:37:40.833Z,30.10
2017-11-08T00:38:46.341Z,31.80
2017-11-08T00:39:52.005Z,32.13
2017-11-08T00:40:57.700Z,31.80
2017-11-08T00:42:03.131Z,30.80
2017-11-08T00:43:08.527Z,31.75
2017-11-08T00:44:13.956Z,30.67
2017-11-08T00:45:19.448Z,31.37
2017-11-08T00:46:24.972Z,32.95
2017-11-08T00:47:32.277Z,33.28
2017-11-08T00:48:37.730Z,32.30
2017-11-08T00:49:43.161Z,31.65
2017-11-08T00:50:48.561Z,32.47
2017-11-08T00:51:54.066Z,33.85
2017-11-08T00:53:02.230Z,34.63
2017-11-08T00:54:07.708Z,34.20
2017-11-08T00:55:13.134Z,34.85
2017-11-08T00:56:18.573Z,33.53
2017-11-08T00:57:29.273Z,34.75
2017-11-08T00:58:34.701Z,33.17
2017-11-08T00:59:40.426Z,33.38
2017-11-08T01:00:45.982Z,33.72
2017-11-08T01:01:51.675Z,33.20
2017-11-08T01:02:57.190Z,34.00
2017-11-08T01:04:02.587Z,34.50
2017-11-08T01:05:07.990Z,33.28
2017-11-08T01:06:13.554Z,32.88
2017-11-08T01:07:19.132Z,33.50
2017-11-08T01:08:24.571Z,32.53
2017-11-08T01:09:30.050Z,31.58
2017-11-08T01:10:35.458Z,32.88
2017-11-08T01:11:41.058Z,32.60
2017-11-08T01:12:46.519Z,31.50
2017-11-08T01:13:51.991Z,32.47
2017-11-08T01:14:57.445Z,32.38
2017-11-08T01:16:02.887Z,34.07
2017-11-08T01:17:08.412Z,33.65
2017-11-08T01:18:13.839Z,34.78
2017-11-08T01:19:19.256Z,33.13
2017-11-08T01:20:24.710Z,35.20
2017-11-08T01:21:30.140Z,33.00
2017-11-08T01:22:35.667Z,33.57
2017-11-08T01:23:41.111Z,32.17
2017-11-08T01:24:46.537Z,33.63
2017-11-08T01:25:52.001Z,33.55
2017-11-08T01:26:57.450Z,33.10
2017-11-08T01:28:03.216Z,31.67
2017-11-08T01:29:08.654Z,33.30
2017-11-08T01:30:14.324Z,33.50
2017-11-08T01:31:20.145Z,34.50
2017-11-08T01:32:25.568Z,32.90
2017-11-08T01:33:33.142Z,32.70
2017-11-08T01:34:38.860Z,31.37
2017-11-08T01:35:44.309Z,33.05
2017-11-08T01:36:54.999Z,32.97
2017-11-08T01:38:00.419Z,32.35
2017-11-08T01:39:05.842Z,32.80
2017-11-08T01:40:18.337Z,32.63
2017-11-08T01:41:25.626Z,34.90
2017-11-08T01:42:33.008Z,34.65
2017-11-08T01:43:38.407Z,34.15
2017-11-08T01:44:50.659Z,31.75
2017-11-08T01:45:56.524Z,31.83
2017-11-08T01:47:01.964Z,31.80
2017-11-08T01:48:09.388Z,31.85
2017-11-08T01:49:16.807Z,33.35
2017-11-08T01:50:28.169Z,34.70
2017-11-08T01:51:40.676Z,33.00
2017-11-08T01:52:46.113Z,32.08
2017-11-08T01:53:51.506Z,33.05
2017-11-08T01:54:56.961Z,33.13
2017-11-08T01:56:02.501Z,32.50
2017-11-08T01:57:07.983Z,32.17
2017-11-08T01:58:13.945Z,30.95
2017-11-08T01:59:19.634Z,33.78
2017-11-08T02:00:25.448Z,32.15
2017-11-08T02:01:31.214Z,31.70
2017-11-08T02:02:36.991Z,31.52
2017-11-08T02:03:42.641Z,32.95
2017-11-08T02:04:48.635Z,31.33
2017-11-08T02:05:54.137Z,31.27
2017-11-08T02:06:59.552Z,32.60
2017-11-08T02:08:04.980Z,30.60
2017-11-08T02:09:10.733Z,31.75
2017-11-08T02:10:16.333Z,30.80
2017-11-08T02:11:21.967Z,31.12
2017-11-08T02:12:27.420Z,31.75
2017-11-08T02:13:32.878Z,32.20
2017-11-08T02:14:38.427Z,30.70
2017-11-08T02:15:52.722Z,31.83
2017-11-08T02:16:58.216Z,32.80
2017-11-08T02:18:30.455Z,32.42
2017-11-08T02:19:35.963Z,32.67
2017-11-08T02:20:41.369Z,32.35
2017-11-08T02:21:46.828Z,32.40
2017-11-08T02:22:52.846Z,32.85
2017-11-08T02:23:58.358Z,32.60
2017-11-08T02:25:03.888Z,32.97
2017-11-08T02:26:09.633Z,33.40
2017-11-08T02:27:18.745Z,32.90
2017-11-08T02:28:24.464Z,33.10
2017-11-08T02:29:30.429Z,33.35
2017-11-08T02:30:36.081Z,31.70
2017-11-08T02:31:41.859Z,32.03
2017-11-08T02:32:48.338Z,31.52
2017-11-08T02:33:54.601Z,31.17
2017-11-08T02:35:00.540Z,32.60
2017-11-08T02:36:06.074Z,30.88
2017-11-08T02:37:11.535Z,32.60
2017-11-08T02:38:17.558Z,32.27
2017-11-08T02:39:23.492Z,32.20
2017-11-08T02:40:29.370Z,30.77
2017-11-08T02:41:35.540Z,31.85
2017-11-08T02:42:41.168Z,31.98
2017-11-08T02:43:47.028Z,32.53
2017-11-08T02:44:53.080Z,31.25
2017-11-08T02:45:58.638Z,30.90
2017-11-08T02:47:04.158Z,32.13
2017-11-08T02:48:09.751Z,30.05
2017-11-08T02:49:16.084Z,30.77
2017-11-08T02:50:21.655Z,30.98
2017-11-08T02:51:27.135Z,31.33
2017-11-08T02:52:32.929Z,30.88
2017-11-08T02:53:38.416Z,30.05
2017-11-08T02:54:44.118Z,30.30
2017-11-08T02:55:50.870Z,30.17
2017-11-08T02:56:57.139Z,30.48
2017-11-08T02:58:03.261Z,30.67
2017-11-08T02:59:08.789Z,31.05
2017-11-08T03:00:14.880Z,30.83
2017-11-08T03:01:20.299Z,30.57
2017-11-08T03:02:30.572Z,28.70
2017-11-08T03:03:41.191Z,28.35
2017-11-08T03:04:48.251Z,28.83
2017-11-08T03:05:54.223Z,28.92
2017-11-08T03:06:59.695Z,28.38
2017-11-08T03:08:05.200Z,28.52
2017-11-08T03:09:10.626Z,29.20
2017-11-08T03:10:16.108Z,28.45
2017-11-08T03:11:21.615Z,29.27
2017-11-08T03:12:27.044Z,28.67
2017-11-08T03:13:32.457Z,28.25
2017-11-08T03:14:37.957Z,27.62
2017-11-08T03:15:43.683Z,28.00
2017-11-08T03:16:49.141Z,27.75
2017-11-08T03:17:55.671Z,27.92
2017-11-08T03:19:01.517Z,28.10
2017-11-08T03:20:07.333Z,28.10
2017-11-08T03:21:13.628Z,27.87
2017-11-08T03:22:19.580Z,26.52
2017-11-08T03:23:25.433Z,25.23
2017-11-08T03:24:31.333Z,25.55
2017-11-08T03:25:36.791Z,25.90
2017-11-08T03:26:42.451Z,27.70
2017-11-08T03:27:47.861Z,25.97
2017-11-08T03:28:54.203Z,26.92
2017-11-08T03:29:59.632Z,28.25
2017-11-08T03:31:05.879Z,28.77
2017-11-08T03:32:11.327Z,29.25
2017-11-08T03:33:16.836Z,29.02
2017-11-08T03:34:22.393Z,29.67
2017-11-08T03:35:27.902Z,28.45
2017-11-08T03:36:33.867Z,30.00
2017-11-08T03:37:40.832Z,28.83
2017-11-08T03:38:46.525Z,29.20
2017-11-08T03:39:52.379Z,28.87
2017-11-08T03:40:57.858Z,28.80
2017-11-08T03:42:03.461Z,28.00
2017-11-08T03:43:09.299Z,29.55
2017-11-08T03:44:14.722Z,28.62
2017-11-08T03:45:20.160Z,28.35
2017-11-08T03:46:25.562Z,28.10
2017-11-08T03:47:31.036Z,27.45
2017-11-08T03:48:36.821Z,26.85
2017-11-08T03:49:42.447Z,24.67
2017-11-08T03:50:47.852Z,24.87
2017-11-08T03:51:53.267Z,26.37
2017-11-08T03:52:58.847Z,25.80
2017-11-08T03:54:04.689Z,26.87
2017-11-08T03:55:10.159Z,25.23
2017-11-08T03:56:15.552Z,25.58
2017-11-08T03:57:21.030Z,26.52
2017-11-08T03:58:26.807Z,25.70
2017-11-08T03:59:32.304Z,25.00
2017-11-08T04:00:37.855Z,25.73
2017-11-08T04:01:43.350Z,26.77
2017-11-08T04:02:48.795Z,26.50
2017-11-08T04:03:54.296Z,28.30
2017-11-08T04:05:00.009Z,26.00
2017-11-08T04:06:05.450Z,24.85
2017-11-08T04:07:10.981Z,27.00
2017-11-08T04:08:16.424Z,27.35
2017-11-08T04:09:22.068Z,26.50
2017-11-08T04:10:27.507Z,28.40
2017-11-08T04:11:32.917Z,29.08
2017-11-08T04:12:38.403Z,28.67
2017-11-08T04:13:43.912Z,26.40
2017-11-08T04:14:49.447Z,31.10
2017-11-08T04:15:54.928Z,29.83
2017-11-08T04:17:00.340Z,29.73
2017-11-08T04:18:05.829Z,29.87
2017-11-08T04:19:11.261Z,32.35
2017-11-08T04:20:16.785Z,31.35
2017-11-08T04:21:22.271Z,32.67
2017-11-08T04:22:27.710Z,32.67
2017-11-08T04:23:33.472Z,32.45
2017-11-08T04:24:38.885Z,34.55
2017-11-08T04:25:44.385Z,33.53
2017-11-08T04:26:49.778Z,33.80
2017-11-08T04:27:55.211Z,33.40
2017-11-08T04:29:00.619Z,33.70
2017-11-08T04:30:06.659Z,35.93
2017-11-08T04:31:12.471Z,33.80
2017-11-08T04:32:17.913Z,34.20
2017-11-08T04:33:23.336Z,34.90
2017-11-08T04:34:28.765Z,35.17
2017-11-08T04:35:34.222Z,34.05
2017-11-08T04:36:39.659Z,34.83
2017-11-08T04:37:45.567Z,34.78
2017-11-08T04:38:51.019Z,34.03
2017-11-08T04:39:56.461Z,33.80
2017-11-08T04:41:02.042Z,34.60
2017-11-08T04:42:07.556Z,32.85
2017-11-08T04:43:12.976Z,33.63
2017-11-08T04:44:18.396Z,33.40
2017-11-08T04:45:23.962Z,32.45
2017-11-08T04:46:30.016Z,34.53
2017-11-08T04:47:35.481Z,33.90
2017-11-08T04:48:41.047Z,33.33
2017-11-08T04:49:46.470Z,35.45
2017-11-08T04:50:52.139Z,34.58
2017-11-08T04:51:57.593Z,32.83
2017-11-08T04:53:03.053Z,34.15
2017-11-08T04:54:08.521Z,35.22
2017-11-08T04:55:14.029Z,34.58
2017-11-08T04:56:19.513Z,34.45
2017-11-08T04:57:25.150Z,33.97
2017-11-08T04:58:30.617Z,33.90
2017-11-08T04:59:36.100Z,34.20
2017-11-08T05:00:41.622Z,33.55
2017-11-08T05:01:47.030Z,34.67
2017-11-08T05:02:54.663Z,32.65
2017-11-08T05:04:00.393Z,32.10
2017-11-08T05:05:05.897Z,33.05
2017-11-08T05:06:11.319Z,32.72
2017-11-08T05:07:16.763Z,35.33
2017-11-08T05:08:22.326Z,35.60
2017-11-08T05:09:27.828Z,33.35
2017-11-08T05:10:34.465Z,34.90
2017-11-08T05:11:39.933Z,33.75
2017-11-08T05:12:45.443Z,34.03
2017-11-08T05:13:50.859Z,33.85
2017-11-08T05:14:56.258Z,34.67
2017-11-08T05:16:02.128Z,32.73
2017-11-08T05:17:07.566Z,33.58
2017-11-08T05:18:13.242Z,32.78
2017-11-08T05:19:18.739Z,33.40
2017-11-08T05:20:24.172Z,32.40
2017-11-08T05:21:29.660Z,32.33
2017-11-08T05:22:35.575Z,31.25
2017-11-08T05:23:41.163Z,31.30
2017-11-08T05:24:46.626Z,32.90
2017-11-08T05:25:52.077Z,32.38
2017-11-08T05:26:57.529Z,32.30
2017-11-08T05:28:03.421Z,30.62
2017-11-08T05:29:09.561Z,31.02
2017-11-08T05:30:14.989Z,30.90
2017-11-08T05:31:20.412Z,30.37
2017-11-08T05:32:25.814Z,29.92
2017-11-08T05:33:31.219Z,31.62
2017-11-08T05:34:36.669Z,30.00
2017-11-08T05:35:42.141Z,31.60
2017-11-08T05:36:47.623Z,30.10
2017-11-08T05:37:53.165Z,29.87
2017-11-08T05:38:59.164Z,29.35
2017-11-08T05:40:04.766Z,29.73
2017-11-08T05:41:10.169Z,31.25
2017-11-08T05:42:15.595Z,29.50
2017-11-08T05:43:21.037Z,30.83
2017-11-08T05:44:26.509Z,29.30
2017-11-08T05:45:32.339Z,29.92
2017-11-08T05:46:37.777Z,30.17
2017-11-08T05:47:43.234Z,30.00
2017-11-08T05:48:48.685Z,28.80
2017-11-08T05:49:54.216Z,30.62
2017-11-08T05:50:59.985Z,29.50
2017-11-08T05:52:05.371Z,30.23
2017-11-08T05:53:10.832Z,29.65
2017-11-08T05:54:16.294Z,30.25
2017-11-08T05:55:21.736Z,30.37
2017-11-08T05:56:27.857Z,30.90
2017-11-08T05:57:33.358Z,29.98
2017-11-08T05:58:38.820Z,29.37
2017-11-08T05:59:44.304Z,28.92
2017-11-08T06:00:49.954Z,29.52
2017-11-08T06:01:55.357Z,29.47
2017-11-08T06:03:00.851Z,31.35
2017-11-08T06:04:07.177Z,31.00
2017-11-08T06:05:12.873Z,30.35
2017-11-08T06:06:18.803Z,31.55
2017-11-08T06:07:24.701Z,30.33
2017-11-08T06:08:33.149Z,29.77
2017-11-08T06:09:41.451Z,100.07
2017-11-08T06:10:53.129Z,38.90
2017-11-08T06:12:02.682Z,39.92
2017-11-08T06:13:08.160Z,32.92
2017-11-08T06:14:14.097Z,34.77
2017-11-08T06:15:19.629Z,31.17
2017-11-08T06:16:25.134Z,30.70
2017-11-08T06:17:30.641Z,30.92
2017-11-08T06:18:36.044Z,30.93
2017-11-08T06:19:41.553Z,32.72
2017-11-08T06:20:47.488Z,30.92
2017-11-08T06:21:53.005Z,31.62
2017-11-08T06:22:58.587Z,32.53
2017-11-08T06:24:04.365Z,30.33
2017-11-08T06:25:09.815Z,31.37
2017-11-08T06:26:15.440Z,31.15
2017-11-08T06:27:20.879Z,31.67
2017-11-08T06:28:26.724Z,32.30
2017-11-08T06:29:32.208Z,31.93
2017-11-08T06:30:37.692Z,31.10
2017-11-08T06:31:43.526Z,32.28
2017-11-08T06:32:49.286Z,30.77
2017-11-08T06:33:55.104Z,29.45
2017-11-08T06:35:00.804Z,31.87
2017-11-08T06:36:06.735Z,30.85
2017-11-08T06:37:12.699Z,31.12
2017-11-08T06:38:18.250Z,31.90
2017-11-08T06:39:24.153Z,30.75
2017-11-08T06:40:29.686Z,30.88
2017-11-08T06:41:35.245Z,31.17
2017-11-08T06:42:41.338Z,30.23
2017-11-08T06:43:46.849Z,30.48
2017-11-08T06:44:52.350Z,30.02
2017-11-08T06:45:58.302Z,29.65
2017-11-08T06:47:04.248Z,30.65
2017-11-08T06:48:09.870Z,29.60
2017-11-08T06:49:15.355Z,31.58
2017-11-08T06:50:20.844Z,30.37
2017-11-08T06:51:26.326Z,30.73
2017-11-08T06:52:31.865Z,30.52
2017-11-08T06:53:38.126Z,31.90
2017-11-08T06:54:43.647Z,31.12
2017-11-08T07:01:19.587Z,32.63
2017-11-08T07:02:25.049Z,34.00
2017-11-08T07:03:30.482Z,31.62
2017-11-08T07:04:35.961Z,34.40
2017-11-08T07:05:41.763Z,32.97
2017-11-08T07:06:47.243Z,34.75
2017-11-08T07:07:52.721Z,34.80
2017-11-08T07:08:58.161Z,32.75
2017-11-08T07:10:03.647Z,34.28
2017-11-08T07:11:09.445Z,34.13
2017-11-08T07:12:14.875Z,34.80
2017-11-08T07:13:20.358Z,34.47
2017-11-08T07:14:25.782Z,35.50
2017-11-08T07:15:31.285Z,33.50
2017-11-08T07:16:37.073Z,33.90
2017-11-08T07:17:42.547Z,34.38
2017-11-08T07:18:48.158Z,34.25
2017-11-08T07:19:53.807Z,33.63
2017-11-08T07:20:59.268Z,34.15
2017-11-08T07:22:07.764Z,33.40
2017-11-08T07:23:13.420Z,33.58
2017-11-08T07:24:18.894Z,33.47
2017-11-08T07:25:24.894Z,34.47
2017-11-08T07:26:30.416Z,34.65
2017-11-08T07:27:35.854Z,36.05
2017-11-08T07:28:41.561Z,33.30
2017-11-08T07:29:47.053Z,34.08
2017-11-08T07:30:52.622Z,33.83
2017-11-08T07:31:58.769Z,33.72
2017-11-08T07:33:04.180Z,33.72
2017-11-08T07:34:10.241Z,32.97
2017-11-08T07:35:15.695Z,34.97
2017-11-08T07:36:21.805Z,32.65
2017-11-08T07:37:27.741Z,33.92
2017-11-08T07:38:33.166Z,34.40
2017-11-08T07:39:39.288Z,34.75
2017-11-08T07:40:44.834Z,35.00
2017-11-08T07:41:50.273Z,34.17
2017-11-08T07:42:55.796Z,35.13
2017-11-08T07:44:01.224Z,35.15
2017-11-08T07:45:07.240Z,35.33
2017-11-08T07:46:12.842Z,36.55
2017-11-08T07:47:18.285Z,36.08
2017-11-08T07:48:23.792Z,35.30
2017-11-08T07:49:29.234Z,34.27
2017-11-08T07:50:35.199Z,36.92
2017-11-08T07:51:40.863Z,36.03
2017-11-08T07:52:46.282Z,36.45
2017-11-08T07:53:51.872Z,37.30
2017-11-08T07:55:02.247Z,36.67
2017-11-08T07:56:07.726Z,35.60
2017-11-08T07:57:13.546Z,36.05
2017-11-08T07:58:19.004Z,36.30
2017-11-08T07:59:26.486Z,37.33
2017-11-08T08:00:31.986Z,37.28
2017-11-08T08:01:37.863Z,37.60
2017-11-08T08:02:43.350Z,36.67
2017-11-08T08:03:49.115Z,36.78
2017-11-08T08:04:54.602Z,36.40
2017-11-08T08:06:00.030Z,38.35
2017-11-08T08:07:05.826Z,37.97
2017-11-08T08:08:11.313Z,39.22
2017-11-08T08:09:16.808Z,40.55
2017-11-08T08:10:22.272Z,38.17
2017-11-08T08:11:27.811Z,36.05
2017-11-08T08:12:38.725Z,38.85
2017-11-08T08:13:44.265Z,37.08
2017-11-08T08:14:49.713Z,39.40
2017-11-08T08:15:55.192Z,36.40
2017-11-08T08:17:00.660Z,37.55
2017-11-08T08:18:06.484Z,38.53
2017-11-08T08:19:11.957Z,37.08
2017-11-08T08:20:17.442Z,38.50
2017-11-08T08:21:24.315Z,40.03
2017-11-08T08:22:29.856Z,38.75
2017-11-08T08:23:35.412Z,39.65
2017-11-08T08:24:40.983Z,38.38
2017-11-08T08:25:48.584Z,38.88
2017-11-08T08:26:54.147Z,37.85
2017-11-08T08:27:59.724Z,39.22
2017-11-08T08:29:05.920Z,39.60
2017-11-08T08:30:11.432Z,38.22
2017-11-08T08:31:16.875Z,38.90
2017-11-08T08:32:22.371Z,39.67
2017-11-08T08:33:27.839Z,38.60
2017-11-08T08:34:34.028Z,39.83
2017-11-08T08:35:39.474Z,40.75
2017-11-08T08:36:44.945Z,39.70
2017-11-08T08:37:50.831Z,40.30
2017-11-08T08:38:56.281Z,38.05
2017-11-08T08:40:01.761Z,39.25
2017-11-08T08:41:07.265Z,39.75
2017-11-08T08:42:12.936Z,40.17
2017-11-08T08:43:18.432Z,40.25
2017-11-08T08:44:24.454Z,39.13
2017-11-08T08:45:29.980Z,41.22
2017-11-08T08:46:35.476Z,39.85
2017-11-08T08:47:40.930Z,39.17
2017-11-08T08:48:46.452Z,40.33
2017-11-08T08:49:51.931Z,38.40
2017-11-08T08:50:57.721Z,38.90
2017-11-08T08:52:03.505Z,40.15
2017-11-08T08:53:09.009Z,40.45
2017-11-08T08:54:14.601Z,38.85
2017-11-08T08:55:20.010Z,38.47
2017-11-08T08:56:25.847Z,38.05
2017-11-08T08:57:31.257Z,39.28
2017-11-08T08:58:36.718Z,37.75
2017-11-08T08:59:42.161Z,37.00
2017-11-08T09:00:47.882Z,37.20
2017-11-08T09:01:55.621Z,38.22
2017-11-08T09:03:01.989Z,38.47
2017-11-08T09:04:07.574Z,38.47
2017-11-08T09:05:13.116Z,37.88
2017-11-08T09:06:18.559Z,39.15
2017-11-08T09:07:24.138Z,38.38
2017-11-08T09:08:29.661Z,38.50
2017-11-08T09:09:36.206Z,39.13
2017-11-08T09:10:43.594Z,38.90
2017-11-08T09:11:51.078Z,38.00
2017-11-08T09:12:58.466Z,38.90
2017-11-08T09:14:04.030Z,39.78
2017-11-08T09:15:09.618Z,38.00
2017-11-08T09:16:15.164Z,38.72
2017-11-08T09:17:20.698Z,39.67
2017-11-08T09:18:26.673Z,39.60
2017-11-08T09:19:33.148Z,37.58
2017-11-08T09:20:38.765Z,44.85
2017-11-08T09:21:44.324Z,40.65
2017-11-08T09:22:49.881Z,40.50
2017-11-08T09:24:00.365Z,41.22
2017-11-08T09:25:10.830Z,43.60
2017-11-08T09:26:16.485Z,43.30
2017-11-08T09:27:21.988Z,41.45
2017-11-08T09:28:27.576Z,41.35
2017-11-08T09:29:35.473Z,43.63
2017-11-08T09:30:41.120Z,41.63
2017-11-08T09:31:46.617Z,39.67
2017-11-08T09:32:52.297Z,40.67
2017-11-08T09:33:57.897Z,38.70
2017-11-08T09:35:08.689Z,38.85
2017-11-08T09:36:15.042Z,38.50
2017-11-08T09:37:27.583Z,36.38
2017-11-08T09:38:33.947Z,36.22
2017-11-08T09:39:39.724Z,36.80
2017-11-08T09:40:45.594Z,35.28
2017-11-08T09:41:51.176Z,35.97
2017-11-08T09:42:58.904Z,36.80
2017-11-08T09:44:04.505Z,36.15
2017-11-08T09:45:12.310Z,36.10
2017-11-08T09:46:17.859Z,36.88
2017-11-08T09:47:23.344Z,37.00
2017-11-08T09:48:28.842Z,35.67
2017-11-08T09:49:34.408Z,35.97
2017-11-08T09:50:39.901Z,36.60
2017-11-08T09:51:46.283Z,36.65
2017-11-08T09:52:51.787Z,36.88
2017-11-08T09:53:57.294Z,36.67
2017-11-08T09:55:02.847Z,37.60
2017-11-08T09:56:08.317Z,36.83
2017-11-08T09:57:14.171Z,36.72
2017-11-08T09:58:19.752Z,38.75
2017-11-08T09:59:25.340Z,39.90
2017-11-08T10:00:30.798Z,35.63
2017-11-08T10:01:42.149Z,36.45
2017-11-08T10:02:47.715Z,37.35
2017-11-08T10:03:53.177Z,35.90
2017-11-08T10:05:00.471Z,35.92
2017-11-08T10:06:05.974Z,36.88
2017-11-08T10:07:11.434Z,35.63
2017-11-08T10:08:16.990Z,39.22
2017-11-08T10:09:56.552Z,36.78
2017-11-08T10:11:04.793Z,35.58
2017-11-08T10:12:13.245Z,36.42
2017-11-08T10:13:19.590Z,37.05
2017-11-08T10:14:25.157Z,37.67
2017-11-08T10:15:30.704Z,35.78
2017-11-08T10:16:53.949Z,36.10
2017-11-08T10:17:59.508Z,34.63
2017-11-08T10:19:04.969Z,35.45
2017-11-08T10:20:10.916Z,35.38
2017-11-08T10:21:16.392Z,35.70
2017-11-08T10:22:22.819Z,38.10
2017-11-08T10:23:28.470Z,38.20
2017-11-08T10:24:34.049Z,38.78
2017-11-08T10:25:39.526Z,40.70
2017-11-08T10:26:45.168Z,40.65
2017-11-08T10:27:50.743Z,37.10
2017-11-08T10:28:56.302Z,39.15
2017-11-08T10:30:01.945Z,39.22
2017-11-08T10:31:07.859Z,37.25
2017-11-08T10:32:13.514Z,35.70
2017-11-08T10:33:19.100Z,34.75
2017-11-08T10:34:24.561Z,34.85
2017-11-08T10:35:30.069Z,35.97
2017-11-08T10:36:35.565Z,36.50
2017-11-08T10:37:41.002Z,38.25
2017-11-08T10:38:46.569Z,37.63
2017-11-08T10:39:52.030Z,37.80
2017-11-08T10:40:57.536Z,37.10
2017-11-08T10:42:03.113Z,36.20
2017-11-08T10:43:08.650Z,36.58
2017-11-08T10:44:14.141Z,37.53
2017-11-08T10:45:19.617Z,37.90
2017-11-08T10:46:25.460Z,38.05
2017-11-08T10:47:30.992Z,37.33
2017-11-08T10:48:38.105Z,38.40
2017-11-08T10:49:48.877Z,37.60
2017-11-08T10:50:54.319Z,40.05
2017-11-08T10:51:59.997Z,38.50
2017-11-08T10:53:05.512Z,38.13
2017-11-08T10:54:11.194Z,38.33
2017-11-08T10:55:18.077Z,39.15
2017-11-08T10:56:23.619Z,41.03
2017-11-08T10:57:29.417Z,39.88
2017-11-08T10:58:35.018Z,38.65
2017-11-08T10:59:46.165Z,39.90
2017-11-08T11:00:52.057Z,40.00
2017-11-08T11:01:57.561Z,39.80
2017-11-08T11:03:07.916Z,41.60
2017-11-08T11:04:13.432Z,42.78
2017-11-08T11:05:19.055Z,41.85
2017-11-08T11:06:25.431Z,43.40
2017-11-08T11:07:30.934Z,43.92
2017-11-08T11:08:36.534Z,44.92
2017-11-08T11:09:42.052Z,44.25
2017-11-08T11:10:48.223Z,43.17
2017-11-08T11:11:53.878Z,44.10
2017-11-08T11:13:04.334Z,43.75
2017-11-08T11:14:11.858Z,43.97
2017-11-08T11:15:17.377Z,44.60
2017-11-08T11:16:23.666Z,45.33
2017-11-08T11:17:29.202Z,45.67
2017-11-08T11:18:34.796Z,45.30
2017-11-08T11:19:40.275Z,47.25
2017-11-08T11:20:48.897Z,46.20
2017-11-08T11:22:00.024Z,48.70
2017-11-08T11:23:05.548Z,47.53
2017-11-08T11:24:13.248Z,48.53
2017-11-08T11:25:18.752Z,49.13
2017-11-08T11:26:30.408Z,49.45
2017-11-08T11:27:36.014Z,48.33
2017-11-08T11:28:41.516Z,49.05
2017-11-08T11:29:47.085Z,50.67
2017-11-08T11:30:52.729Z,50.03
2017-11-08T11:31:58.247Z,49.90
2017-11-08T11:33:07.418Z,49.67
2017-11-08T11:34:13.020Z,50.50
2017-11-08T11:35:18.534Z,51.33
2017-11-08T11:36:24.151Z,52.15
2017-11-08T11:37:31.458Z,49.55
2017-11-08T11:38:37.012Z,52.03
2017-11-08T11:39:42.506Z,51.00
2017-11-08T11:40:48.020Z,51.05
2017-11-08T11:41:53.779Z,51.50
2017-11-08T11:42:59.451Z,51.40
2017-11-08T11:44:05.544Z,51.37
2017-11-08T11:45:11.126Z,53.57
2017-11-08T11:46:16.909Z,54.28
2017-11-08T11:47:22.586Z,53.17
2017-11-08T11:48:32.400Z,55.80
2017-11-08T11:49:37.994Z,53.03
2017-11-08T11:50:45.044Z,52.33
2017-11-08T11:51:50.517Z,51.45
2017-11-08T11:52:56.015Z,53.67
2017-11-08T11:54:01.597Z,54.53
2017-11-08T11:55:07.566Z,52.43
2017-11-08T11:56:13.062Z,55.17
2017-11-08T11:57:18.569Z,53.75
2017-11-08T11:58:24.099Z,53.50
2017-11-08T11:59:29.697Z,55.42
2017-11-08T12:00:35.283Z,52.42
2017-11-08T12:01:40.842Z,53.63
2017-11-08T12:02:46.474Z,55.70
2017-11-08T12:03:52.050Z,52.50
2017-11-08T12:04:57.995Z,57.22
2017-11-08T12:06:03.649Z,55.78
2017-11-08T12:07:09.180Z,54.47
2017-11-08T12:08:14.855Z,54.30
2017-11-08T12:09:21.368Z,55.78
2017-11-08T12:10:27.051Z,53.15
2017-11-08T12:11:36.889Z,53.35
2017-11-08T12:12:42.574Z,55.38
2017-11-08T12:13:51.026Z,56.60
2017-11-08T12:14:56.613Z,55.22
2017-11-08T12:16:02.383Z,56.67
2017-11-08T12:17:07.989Z,54.20
2017-11-08T12:18:13.578Z,55.43
2017-11-08T12:19:19.161Z,61.90
2017-11-08T12:20:24.717Z,52.20
2017-11-08T12:21:30.265Z,55.15
2017-11-08T12:22:36.066Z,54.13
2017-11-08T12:23:41.626Z,52.83
2017-11-08T12:24:47.328Z,53.15
2017-11-08T12:25:52.906Z,53.33
2017-11-08T12:27:03.697Z,51.95
2017-11-08T12:28:09.628Z,51.50
2017-11-08T12:29:15.202Z,51.53
2017-11-08T12:30:20.994Z,54.35
2017-11-08T12:31:27.088Z,55.63
2017-11-08T12:32:33.951Z,52.90
2017-11-08T12:33:40.880Z,53.58
2017-11-08T12:34:52.318Z,54.85
2017-11-08T12:35:59.376Z,55.75
2017-11-08T12:37:05.002Z,54.28
2017-11-08T12:38:10.572Z,54.10
2017-11-08T12:39:17.979Z,55.10
2017-11-08T12:40:23.839Z,54.85
2017-11-08T12:41:31.336Z,53.10
2017-11-08T12:42:37.620Z,53.85
2017-11-08T12:43:48.272Z,56.75
2017-11-08T12:44:59.824Z,55.35
2017-11-08T12:46:06.427Z,54.10
2017-11-08T12:47:12.860Z,54.20
2017-11-08T12:48:18.527Z,54.22
2017-11-08T12:49:26.079Z,57.30
2017-11-08T12:50:32.877Z,55.47
2017-11-08T12:51:39.648Z,56.22
2017-11-08T12:52:46.127Z,55.05
2017-11-08T12:53:52.026Z,54.20
2017-11-08T12:54:57.605Z,55.50
2017-11-08T12:56:03.592Z,56.28
2017-11-08T12:57:09.201Z,54.28
2017-11-08T12:58:14.889Z,54.45
2017-11-08T12:59:20.454Z,55.00
2017-11-08T13:00:26.487Z,54.70
2017-11-08T13:01:33.597Z,56.42
2017-11-08T13:03:02.989Z,55.33
2017-11-08T13:04:08.566Z,57.90
2017-11-08T13:05:14.275Z,53.45
2017-11-08T13:06:19.946Z,56.03
2017-11-08T13:07:25.690Z,55.22
2017-11-08T13:08:35.026Z,57.47
2017-11-08T13:09:40.615Z,56.40
2017-11-08T13:10:51.327Z,56.22
2017-11-08T13:11:57.237Z,56.63
2017-11-08T13:13:03.953Z,57.62
2017-11-08T13:14:10.237Z,58.22
2017-11-08T13:15:15.896Z,58.05
2017-11-08T13:16:22.468Z,57.90
2017-11-08T13:17:28.389Z,58.42
2017-11-08T13:18:34.091Z,56.70
2017-11-08T13:19:41.588Z,60.08
2017-11-08T13:20:48.439Z,58.08
2017-11-08T13:21:54.492Z,56.35
2017-11-08T13:23:00.589Z,56.10
2017-11-08T13:24:07.150Z,57.88
2017-11-08T13:25:13.099Z,59.13
2017-11-08T13:26:19.995Z,57.80
2017-11-08T13:27:26.172Z,57.75
2017-11-08T13:28:32.036Z,57.20
2017-11-08T13:29:37.931Z,53.78
2017-11-08T13:30:43.556Z,54.03
2017-11-08T13:31:49.174Z,55.95
2017-11-08T13:32:54.745Z,51.20
2017-11-08T13:34:00.349Z,53.50
2017-11-08T13:35:05.940Z,52.20
2017-11-08T13:36:11.740Z,51.92
2017-11-08T13:37:17.663Z,50.85
2017-11-08T13:38:23.239Z,49.28
2017-11-08T13:39:28.850Z,47.38
2017-11-08T13:40:34.407Z,44.88
2017-11-08T13:41:40.021Z,42.35
2017-11-08T13:42:45.685Z,44.80
2017-11-08T13:43:51.266Z,44.08
2017-11-08T13:44:57.013Z,43.78
2017-11-08T13:46:02.694Z,43.78
2017-11-08T13:47:08.504Z,43.00
2017-11-08T13:48:14.446Z,41.42
2017-11-08T13:49:20.056Z,42.78
2017-11-08T13:50:25.743Z,41.92
2017-11-08T13:51:31.493Z,41.30
2017-11-08T13:52:37.346Z,42.67
2017-11-08T13:53:42.927Z,40.97
2017-11-08T13:54:48.500Z,40.95
2017-11-08T13:55:54.143Z,41.43
2017-11-08T13:56:59.902Z,41.42
2017-11-08T13:58:05.648Z,41.85
2017-11-08T13:59:11.733Z,44.03
2017-11-08T14:00:22.361Z,41.90
2017-11-08T14:01:28.125Z,40.30
2017-11-08T14:02:33.864Z,41.58
2017-11-08T14:03:39.626Z,42.10
2017-11-08T14:04:52.025Z,43.58
2017-11-08T14:05:57.502Z,41.42
2017-11-08T14:07:03.324Z,42.70
2017-11-08T14:08:08.879Z,42.35
2017-11-08T14:09:14.554Z,43.47
2017-11-08T14:10:20.183Z,42.58
2017-11-08T14:11:25.814Z,45.00
2017-11-08T14:12:31.432Z,42.38
2017-11-08T14:13:36.980Z,42.70
2017-11-08T14:14:42.647Z,42.47
2017-11-08T14:15:48.293Z,41.50
2017-11-08T14:16:53.807Z,43.83